createdAt,value
2019-02-15T00:01:20.993Z,63.70
2019-02-15T00:03:49.609Z,63.59
2019-02-15T00:06:18.096Z,63.91
2019-02-15T00:08:46.681Z,64.18
2019-02-15T00:11:15.135Z,63.45
2019-02-15T00:13:43.848Z,63.45
2019-02-15T00:16:12.458Z,63.84
2019-02-15T00:18:42.807Z,63.92
2019-02-15T00:21:19.045Z,63.69
2019-02-15T00:23:47.585Z,64.82
2019-02-15T00:26:16.753Z,64.39
2019-02-15T00:28:45.525Z,64.59
2019-02-15T00:31:15.770Z,64.48
2019-02-15T00:33:44.279Z,64.17
2019-02-15T00:36:12.880Z,64.88
2019-02-15T00:38:41.451Z,65.02
2019-02-15T00:41:09.914Z,64.70
2019-02-15T00:43:40.381Z,64.31
2019-02-15T00:46:13.204Z,64.33
2019-02-15T00:48:41.825Z,64.21
2019-02-15T00:51:12.060Z,64.60
2019-02-15T00:53:50.695Z,64.78
2019-02-15T00:56:38.298Z,64.18
2019-02-15T00:59:08.450Z,64.28
2019-02-15T01:01:44.346Z,63.84
2019-02-15T01:04:14.512Z,63.99
2019-02-15T01:06:44.679Z,63.74
2019-02-15T01:09:27.068Z,63.70
2019-02-15T01:11:57.340Z,64.11
2019-02-15T01:14:28.963Z,63.81
2019-02-15T01:16:57.558Z,64.54
2019-02-15T01:19:26.013Z,63.76
2019-02-15T01:21:54.630Z,64.27
2019-02-15T01:24:23.180Z,63.78
2019-02-15T01:26:53.294Z,64.43
2019-02-15T01:29:23.438Z,64.00
2019-02-15T01:31:56.587Z,63.32
2019-02-15T01:34:29.494Z,63.03
2019-02-15T01:37:11.578Z,63.14
2019-02-15T01:39:47.400Z,63.28
2019-02-15T01:42:23.608Z,63.13
2019-02-15T01:44:53.829Z,63.41
2019-02-15T01:47:22.385Z,62.74
2019-02-15T01:49:50.937Z,62.91
2019-02-15T01:52:19.531Z,62.65
2019-02-15T01:54:48.039Z,63.19
2019-02-15T01:57:16.486Z,63.98
2019-02-15T01:59:45.998Z,63.68
2019-02-15T02:02:14.667Z,63.54
2019-02-15T02:04:43.290Z,63.60
2019-02-15T02:07:11.837Z,63.41
2019-02-15T02:09:40.382Z,62.98
2019-02-15T02:12:09.242Z,63.38
2019-02-15T02:14:37.878Z,64.37
2019-02-15T02:17:06.465Z,64.14
2019-02-15T02:19:34.945Z,63.48
2019-02-15T02:22:03.645Z,63.75
2019-02-15T02:24:32.103Z,64.32
2019-02-15T02:27:00.649Z,64.43
2019-02-15T02:29:29.158Z,65.24
2019-02-15T02:31:57.770Z,64.12
2019-02-15T02:34:26.354Z,63.75
2019-02-15T02:36:55.856Z,64.78
2019-02-15T02:39:24.561Z,65.31
2019-02-15T02:41:53.174Z,65.31
2019-02-15T02:44:21.788Z,65.31
2019-02-15T02:46:50.432Z,65.03
2019-02-15T02:49:19.059Z,65.76
2019-02-15T02:51:47.587Z,66.12
2019-02-15T02:54:16.411Z,66.04
2019-02-15T02:56:44.918Z,65.71
2019-02-15T02:59:13.543Z,65.06
2019-02-15T03:01:42.115Z,64.68
2019-02-15T03:04:10.718Z,64.69
2019-02-15T03:06:39.121Z,65.79
2019-02-15T03:09:09.610Z,66.11
2019-02-15T03:11:38.328Z,65.88
2019-02-15T03:14:11.649Z,65.47
2019-02-15T03:16:37.077Z,65.72
2019-02-15T03:19:05.582Z,64.84
2019-02-15T03:21:34.187Z,64.82
2019-02-15T03:24:02.674Z,64.95
2019-02-15T03:26:31.287Z,64.56
2019-02-15T03:28:59.794Z,65.12
2019-02-15T03:31:28.493Z,65.62
2019-02-15T03:33:57.005Z,65.08
2019-02-15T03:36:36.312Z,64.82
2019-02-15T03:39:19.714Z,66.23
2019-02-15T03:41:48.327Z,66.50
2019-02-15T03:44:22.219Z,66.86
2019-02-15T03:46:47.135Z,65.77
2019-02-15T03:49:15.647Z,66.29
2019-02-15T03:51:44.176Z,65.87
2019-02-15T03:54:12.723Z,66.70
2019-02-15T03:56:41.281Z,66.59
2019-02-15T03:59:09.914Z,67.14
2019-02-15T04:01:38.449Z,67.00
2019-02-15T04:04:07.029Z,67.00
2019-02-15T04:06:35.655Z,66.79
2019-02-15T04:09:05.401Z,67.01
2019-02-15T04:11:33.913Z,68.54
2019-02-15T04:14:02.457Z,67.55
2019-02-15T04:16:30.995Z,66.86
2019-02-15T04:18:59.436Z,66.98
2019-02-15T04:21:27.991Z,67.41
2019-02-15T04:23:56.444Z,66.37
2019-02-15T04:26:24.881Z,66.69
2019-02-15T04:28:53.652Z,67.40
2019-02-15T04:31:22.153Z,66.41
2019-02-15T04:33:50.650Z,66.42
2019-02-15T04:36:19.202Z,66.20
2019-02-15T04:38:47.747Z,65.84
2019-02-15T04:41:16.199Z,64.96
2019-02-15T04:43:44.822Z,65.30
2019-02-15T04:46:13.335Z,65.32
2019-02-15T04:48:41.820Z,65.77
2019-02-15T04:51:10.302Z,66.51
2019-02-15T04:53:38.827Z,66.69
2019-02-15T04:56:07.430Z,66.56
2019-02-15T04:58:36.245Z,67.02
2019-02-15T05:01:04.792Z,67.90
2019-02-15T05:03:33.425Z,70.32
2019-02-15T05:06:01.956Z,69.87
2019-02-15T05:08:30.542Z,69.17
2019-02-15T05:10:59.096Z,68.88
2019-02-15T05:13:27.580Z,70.68
2019-02-15T05:15:56.730Z,66.91
2019-02-15T05:18:25.273Z,66.13
2019-02-15T05:20:53.848Z,66.24
2019-02-15T05:23:22.492Z,66.73
2019-02-15T05:25:50.974Z,67.59
2019-02-15T05:28:19.425Z,68.79
2019-02-15T05:30:48.001Z,69.62
2019-02-15T05:33:16.694Z,69.72
2019-02-15T05:35:45.330Z,69.78
2019-02-15T05:38:13.912Z,69.09
2019-02-15T05:40:42.393Z,68.62
2019-02-15T05:43:10.808Z,67.51
2019-02-15T05:45:39.443Z,68.37
2019-02-15T05:48:08.053Z,70.24
2019-02-15T05:50:36.669Z,66.88
2019-02-15T05:53:05.193Z,66.20
2019-02-15T05:55:33.648Z,66.73
2019-02-15T05:58:02.251Z,67.09
2019-02-15T06:00:36.958Z,68.68
2019-02-15T06:03:01.170Z,69.24
2019-02-15T06:05:29.653Z,70.00
2019-02-15T06:07:58.237Z,70.17
2019-02-15T06:10:26.832Z,69.90
2019-02-15T06:12:55.432Z,69.15
2019-02-15T06:15:24.013Z,68.34
2019-02-15T06:17:52.711Z,67.99
2019-02-15T06:20:21.287Z,68.03
2019-02-15T06:22:49.764Z,71.78
2019-02-15T06:25:18.227Z,67.37
2019-02-15T06:27:46.743Z,67.02
2019-02-15T06:30:15.357Z,66.92
2019-02-15T06:32:43.979Z,68.08
2019-02-15T06:35:12.582Z,69.10
2019-02-15T06:37:41.040Z,70.10
2019-02-15T06:40:09.723Z,70.69
2019-02-15T06:42:38.197Z,69.91
2019-02-15T06:45:07.726Z,69.91
2019-02-15T06:47:36.276Z,69.63
2019-02-15T06:50:06.496Z,69.60
2019-02-15T06:52:35.060Z,68.86
2019-02-15T06:55:03.605Z,69.77
2019-02-15T06:57:32.234Z,71.66
2019-02-15T07:00:18.716Z,69.06
2019-02-15T07:03:03.893Z,66.75
2019-02-15T07:05:32.388Z,66.80
2019-02-15T07:08:00.871Z,67.30
2019-02-15T07:10:29.298Z,69.50
2019-02-15T07:12:58.019Z,70.11
2019-02-15T07:15:33.444Z,70.60
2019-02-15T07:17:56.879Z,70.00
2019-02-15T07:20:25.465Z,69.61
2019-02-15T07:22:54.108Z,69.45
2019-02-15T07:25:22.707Z,69.06
2019-02-15T07:27:51.341Z,69.00
2019-02-15T07:30:19.987Z,69.00
2019-02-15T07:32:48.570Z,77.79
2019-02-15T07:35:17.183Z,69.61
2019-02-15T07:37:45.611Z,67.62
2019-02-15T07:40:14.164Z,66.79
2019-02-15T07:42:42.640Z,66.82
2019-02-15T07:45:11.654Z,68.09
2019-02-15T07:47:42.188Z,69.12
2019-02-15T07:50:14.452Z,69.36
2019-02-15T07:52:43.111Z,69.06
2019-02-15T07:55:11.698Z,68.84
2019-02-15T07:57:40.130Z,67.97
2019-02-15T08:00:14.273Z,67.59
2019-02-15T08:02:42.847Z,67.27
2019-02-15T08:05:11.577Z,66.57
2019-02-15T08:07:40.147Z,72.10
2019-02-15T08:10:11.003Z,67.51
2019-02-15T08:12:39.632Z,65.01
2019-02-15T08:15:09.849Z,64.66
2019-02-15T08:17:38.378Z,64.15
2019-02-15T08:20:10.010Z,65.01
2019-02-15T08:22:38.564Z,66.64
2019-02-15T08:25:07.845Z,67.06
2019-02-15T08:27:36.455Z,66.06
2019-02-15T08:30:07.394Z,65.78
2019-02-15T08:32:36.232Z,64.96
2019-02-15T08:35:06.258Z,64.59
2019-02-15T08:37:34.826Z,64.39
2019-02-15T08:40:03.872Z,63.92
2019-02-15T08:42:32.387Z,64.47
2019-02-15T08:45:01.034Z,64.97
2019-02-15T08:47:29.487Z,63.01
2019-02-15T08:49:58.037Z,62.30
2019-02-15T08:52:27.610Z,62.38
2019-02-15T08:54:56.137Z,61.35
2019-02-15T08:57:24.696Z,61.71
2019-02-15T08:59:53.220Z,62.77
2019-02-15T09:02:22.707Z,62.78
2019-02-15T09:04:51.330Z,62.04
2019-02-15T09:07:19.813Z,61.51
2019-02-15T09:09:48.263Z,61.25
2019-02-15T09:12:16.881Z,58.71
2019-02-15T09:14:45.473Z,59.66
2019-02-15T09:17:14.096Z,57.07
2019-02-15T09:19:42.676Z,54.49
2019-02-15T09:22:11.388Z,51.95
2019-02-15T09:24:39.933Z,51.17
2019-02-15T09:27:10.195Z,50.15
2019-02-15T09:29:38.759Z,48.83
2019-02-15T09:32:07.437Z,49.17
2019-02-15T09:34:36.044Z,48.54
2019-02-15T09:37:04.654Z,47.14
2019-02-15T09:39:33.258Z,47.79
2019-02-15T09:42:01.812Z,46.14
2019-02-15T09:44:30.397Z,46.69
2019-02-15T09:46:58.882Z,45.75
2019-02-15T09:49:27.488Z,44.78
2019-02-15T09:51:56.036Z,45.31
2019-02-15T09:54:24.502Z,44.97
2019-02-15T09:56:52.941Z,47.64
2019-02-15T09:59:21.430Z,45.58
2019-02-15T10:01:50.063Z,45.21
2019-02-15T10:04:18.584Z,45.05
2019-02-15T10:06:47.211Z,44.72
2019-02-15T10:09:15.795Z,43.86
2019-02-15T10:11:44.337Z,42.87
2019-02-15T10:14:12.854Z,43.01
2019-02-15T10:16:41.489Z,42.82
2019-02-15T10:19:10.092Z,43.60
2019-02-15T10:21:38.647Z,42.88
2019-02-15T10:24:07.178Z,43.00
2019-02-15T10:26:38.129Z,41.17
2019-02-15T10:29:06.728Z,42.84
2019-02-15T10:31:35.518Z,42.13
2019-02-15T10:34:04.045Z,42.15
2019-02-15T10:36:32.641Z,40.21
2019-02-15T10:39:01.264Z,41.29
2019-02-15T10:41:29.768Z,41.71
2019-02-15T10:43:58.322Z,41.24
2019-02-15T10:46:26.908Z,41.38
2019-02-15T10:48:55.525Z,41.32
2019-02-15T10:51:24.032Z,40.90
2019-02-15T10:53:52.636Z,40.76
2019-02-15T10:56:21.143Z,40.38
2019-02-15T10:58:49.598Z,39.56
2019-02-15T11:01:18.139Z,39.83
2019-02-15T11:03:46.743Z,37.82
2019-02-15T11:06:15.204Z,39.79
2019-02-15T11:08:43.689Z,38.46
2019-02-15T11:11:12.308Z,38.10
2019-02-15T11:13:40.829Z,36.30
2019-02-15T11:16:09.527Z,36.23
2019-02-15T11:18:38.102Z,36.57
2019-02-15T11:21:06.763Z,37.02
2019-02-15T11:23:35.352Z,36.65
2019-02-15T11:26:04.666Z,37.02
2019-02-15T11:28:33.322Z,36.28
2019-02-15T11:31:01.798Z,36.36
2019-02-15T11:33:32.494Z,35.67
2019-02-15T11:36:00.775Z,36.50
2019-02-15T11:38:29.303Z,37.02
2019-02-15T11:40:57.889Z,37.40
2019-02-15T11:43:26.593Z,35.53
2019-02-15T11:45:55.118Z,35.57
2019-02-15T11:48:23.683Z,36.06
2019-02-15T11:50:52.371Z,35.42
2019-02-15T11:53:20.949Z,35.63
2019-02-15T11:55:49.497Z,36.03
2019-02-15T11:58:18.095Z,35.90
2019-02-15T12:00:46.662Z,36.07
2019-02-15T12:03:15.200Z,34.94
2019-02-15T12:05:43.817Z,35.61
2019-02-15T12:08:12.351Z,34.99
2019-02-15T12:10:40.976Z,34.36
2019-02-15T12:13:09.939Z,34.38
2019-02-15T12:15:38.545Z,34.21
2019-02-15T12:18:07.176Z,34.30
2019-02-15T12:20:35.692Z,34.23
2019-02-15T12:23:04.343Z,34.31
2019-02-15T12:25:32.903Z,33.36
2019-02-15T12:28:01.486Z,34.29
2019-02-15T12:30:30.161Z,34.55
2019-02-15T12:32:59.255Z,34.35
2019-02-15T12:35:27.930Z,34.52
2019-02-15T12:37:56.499Z,34.31
2019-02-15T12:40:25.047Z,33.50
2019-02-15T12:42:53.530Z,34.48
2019-02-15T12:45:22.918Z,34.09
2019-02-15T12:47:51.547Z,34.05
2019-02-15T12:50:21.142Z,34.01
2019-02-15T12:52:49.806Z,33.51
2019-02-15T12:55:18.403Z,33.39
2019-02-15T12:57:47.043Z,33.87
2019-02-15T13:00:16.603Z,32.87
2019-02-15T13:02:45.247Z,33.40
2019-02-15T13:05:14.768Z,32.69
2019-02-15T13:07:43.355Z,33.01
2019-02-15T13:10:20.385Z,33.03
2019-02-15T13:12:48.943Z,32.82
2019-02-15T13:15:17.457Z,32.34
2019-02-15T13:17:46.124Z,32.27
2019-02-15T13:20:14.752Z,31.78
2019-02-15T13:22:43.357Z,31.69
2019-02-15T13:25:12.035Z,31.87
2019-02-15T13:27:40.605Z,32.61
2019-02-15T13:30:13.967Z,32.91
2019-02-15T13:32:42.627Z,32.29
2019-02-15T13:35:13.747Z,32.71
2019-02-15T13:37:42.411Z,32.76
2019-02-15T13:40:11.003Z,32.87
2019-02-15T13:42:39.565Z,32.93
2019-02-15T13:45:14.225Z,32.94
2019-02-15T13:47:42.838Z,32.65
2019-02-15T13:50:16.200Z,32.24
2019-02-15T13:52:44.897Z,32.63
2019-02-15T13:55:13.485Z,32.76
2019-02-15T13:57:42.062Z,33.28
2019-02-15T14:00:14.227Z,32.23
2019-02-15T14:02:42.790Z,32.19
2019-02-15T14:05:14.138Z,32.44
2019-02-15T14:07:42.712Z,32.44
2019-02-15T14:10:14.890Z,32.91
2019-02-15T14:12:43.491Z,32.47
2019-02-15T14:15:12.579Z,32.99
2019-02-15T14:17:47.719Z,32.61
2019-02-15T14:20:13.182Z,32.04
2019-02-15T14:22:41.774Z,33.39
2019-02-15T14:25:12.562Z,33.45
2019-02-15T14:30:16.877Z,32.87
2019-02-15T14:32:45.517Z,32.63
2019-02-15T14:35:16.787Z,32.57
2019-02-15T14:37:45.427Z,32.93
2019-02-15T14:40:14.508Z,32.54
2019-02-15T14:42:43.276Z,31.81
2019-02-15T14:45:12.935Z,30.79
2019-02-15T14:47:41.601Z,31.96
2019-02-15T14:50:10.996Z,31.09
2019-02-15T14:52:39.621Z,30.57
2019-02-15T14:55:09.736Z,31.19
2019-02-15T14:57:38.448Z,30.16
2019-02-15T15:00:10.011Z,30.11
2019-02-15T15:02:38.649Z,30.39
2019-02-15T15:05:07.924Z,30.42
2019-02-15T15:07:36.556Z,29.97
2019-02-15T15:10:07.849Z,30.36
2019-02-15T15:12:36.357Z,31.16
2019-02-15T15:15:07.851Z,30.38
2019-02-15T15:17:36.411Z,30.78
2019-02-15T15:20:07.708Z,30.60
2019-02-15T15:22:36.368Z,31.29
2019-02-15T15:25:06.866Z,30.28
2019-02-15T15:27:35.416Z,30.33
2019-02-15T15:30:04.434Z,30.37
2019-02-15T15:32:35.233Z,31.03
2019-02-15T15:35:04.009Z,30.45
2019-02-15T15:37:32.488Z,30.25
2019-02-15T15:40:01.073Z,30.53
2019-02-15T15:42:29.694Z,30.41
2019-02-15T15:44:58.258Z,30.64
2019-02-15T15:47:26.851Z,30.92
2019-02-15T15:49:55.427Z,30.72
2019-02-15T15:52:23.937Z,30.53
2019-02-15T15:54:52.654Z,30.44
2019-02-15T15:57:21.273Z,31.33
2019-02-15T15:59:50.032Z,32.04
2019-02-15T16:02:18.724Z,32.01
2019-02-15T16:04:47.449Z,30.91
2019-02-15T16:07:16.379Z,32.22
2019-02-15T16:09:45.037Z,32.18
2019-02-15T16:12:13.791Z,32.41
2019-02-15T16:14:42.458Z,31.84
2019-02-15T16:17:11.086Z,32.15
2019-02-15T16:19:48.830Z,31.67
2019-02-15T16:22:09.991Z,32.22
2019-02-15T16:24:38.469Z,32.20
2019-02-15T16:27:07.115Z,32.43
2019-02-15T16:29:35.751Z,32.96
2019-02-15T16:32:05.966Z,34.11
2019-02-15T16:34:34.498Z,34.12
2019-02-15T16:37:03.106Z,34.61
2019-02-15T16:39:31.716Z,34.63
2019-02-15T16:42:00.167Z,35.19
2019-02-15T16:44:28.725Z,35.57
2019-02-15T16:46:57.241Z,35.57
2019-02-15T16:49:25.762Z,35.88
2019-02-15T16:51:54.300Z,36.38
2019-02-15T16:54:22.840Z,37.45
2019-02-15T16:56:51.306Z,37.34
2019-02-15T16:59:19.895Z,37.47
2019-02-15T17:01:48.620Z,37.31
2019-02-15T17:04:17.275Z,37.72
2019-02-15T17:06:45.916Z,38.02
2019-02-15T17:09:17.449Z,38.51
2019-02-15T17:11:46.066Z,38.95
2019-02-15T17:14:14.639Z,38.85
2019-02-15T17:16:43.271Z,38.85
2019-02-15T17:19:11.848Z,39.12
2019-02-15T17:21:40.375Z,38.55
2019-02-15T17:24:09.527Z,39.58
2019-02-15T17:26:38.050Z,39.42
2019-02-15T17:29:08.192Z,40.61
2019-02-15T17:31:36.751Z,40.09
2019-02-15T17:34:05.378Z,40.20
2019-02-15T17:36:33.892Z,40.60
2019-02-15T17:39:02.478Z,40.91
2019-02-15T17:41:31.363Z,41.22
2019-02-15T17:44:00.064Z,41.55
2019-02-15T17:46:28.552Z,41.69
2019-02-15T17:49:00.802Z,41.50
2019-02-15T17:51:27.296Z,42.43
2019-02-15T17:53:55.912Z,42.23
2019-02-15T17:56:24.615Z,42.28
2019-02-15T17:58:53.212Z,42.59
2019-02-15T18:01:21.881Z,42.29
2019-02-15T18:03:50.420Z,42.69
2019-02-15T18:06:19.057Z,42.48
2019-02-15T18:08:47.685Z,42.83
2019-02-15T18:11:16.264Z,42.98
2019-02-15T18:13:44.892Z,43.07
2019-02-15T18:16:14.446Z,43.05
2019-02-15T18:18:43.039Z,43.13
2019-02-15T18:21:12.866Z,43.46
2019-02-15T18:23:41.590Z,43.06
2019-02-15T18:26:10.166Z,44.38
2019-02-15T18:28:38.709Z,44.88
2019-02-15T18:31:07.291Z,44.12
2019-02-15T18:33:35.949Z,43.88
2019-02-15T18:36:05.476Z,43.78
2019-02-15T18:38:34.183Z,44.25
2019-02-15T18:41:02.750Z,44.37
2019-02-15T18:43:31.384Z,43.68
2019-02-15T18:46:00.098Z,44.01
2019-02-15T18:48:28.620Z,43.72
2019-02-15T18:50:58.778Z,43.78
2019-02-15T18:53:27.165Z,43.75
2019-02-15T18:55:55.864Z,43.80
2019-02-15T18:58:24.407Z,43.13
2019-02-15T19:00:53.001Z,42.78
2019-02-15T19:03:21.786Z,42.24
2019-02-15T19:05:50.390Z,42.47
2019-02-15T19:08:18.962Z,43.01
2019-02-15T19:10:47.618Z,42.55
2019-02-15T19:13:16.217Z,42.58
2019-02-15T19:15:44.903Z,42.83
2019-02-15T19:18:13.558Z,42.42
2019-02-15T19:20:42.192Z,42.46
2019-02-15T19:23:10.704Z,41.30
2019-02-15T19:25:40.819Z,41.41
2019-02-15T19:28:09.336Z,41.30
2019-02-15T19:30:37.889Z,41.53
2019-02-15T19:33:08.053Z,40.51
2019-02-15T19:35:36.528Z,39.96
2019-02-15T19:38:05.124Z,40.09
2019-02-15T19:40:33.769Z,40.06
2019-02-15T19:43:05.459Z,39.64
2019-02-15T19:45:34.076Z,40.38
2019-02-15T19:48:02.593Z,39.76
2019-02-15T19:50:31.380Z,39.76
2019-02-15T19:52:59.994Z,40.03
2019-02-15T19:55:28.715Z,39.57
2019-02-15T19:57:57.315Z,40.30
2019-02-15T20:00:25.981Z,38.86
2019-02-15T20:02:54.606Z,38.17
2019-02-15T20:05:23.210Z,37.96
2019-02-15T20:07:51.837Z,38.78
2019-02-15T20:10:22.331Z,38.38
2019-02-15T20:12:50.938Z,38.51
2019-02-15T20:15:19.718Z,38.25
2019-02-15T20:17:48.334Z,37.88
2019-02-15T20:20:17.731Z,37.87
2019-02-15T20:22:46.370Z,37.26
2019-02-15T20:25:15.075Z,37.90
2019-02-15T20:27:43.767Z,37.84
2019-02-15T20:30:15.335Z,38.78
2019-02-15T20:32:43.959Z,37.88
2019-02-15T20:35:13.562Z,37.68
2019-02-15T20:37:42.465Z,38.08
2019-02-15T20:40:12.481Z,37.42
2019-02-15T20:42:41.244Z,37.69
2019-02-15T20:45:21.336Z,37.43
2019-02-15T20:50:35.472Z,37.78
2019-02-15T20:53:04.091Z,37.73
2019-02-15T20:55:32.577Z,37.24
2019-02-15T20:58:01.115Z,37.95
2019-02-15T21:00:30.297Z,37.97
2019-02-15T21:02:58.818Z,37.85
2019-02-15T21:05:27.484Z,37.85
2019-02-15T21:07:56.098Z,37.61
2019-02-15T21:10:24.783Z,38.64
2019-02-15T21:12:53.321Z,38.77
2019-02-15T21:15:24.095Z,39.33
2019-02-15T21:17:53.067Z,38.91
2019-02-15T21:20:21.704Z,38.19
2019-02-15T21:22:50.300Z,39.12
2019-02-15T21:25:18.892Z,38.65
2019-02-15T21:27:47.468Z,38.70
2019-02-15T21:30:18.108Z,39.05
2019-02-15T21:32:46.857Z,39.04
2019-02-15T21:35:15.476Z,39.41
2019-02-15T21:37:44.074Z,39.39
2019-02-15T21:40:17.212Z,39.00
2019-02-15T21:42:45.755Z,39.35
2019-02-15T21:45:14.556Z,39.36
2019-02-15T21:47:43.169Z,38.57
2019-02-15T21:50:17.219Z,39.11
2019-02-15T21:52:44.571Z,39.21
2019-02-15T21:55:16.470Z,39.21
2019-02-15T21:57:45.099Z,39.63
2019-02-15T22:00:16.600Z,39.64
2019-02-15T22:02:45.275Z,39.88
2019-02-15T22:05:14.497Z,40.16
2019-02-15T22:07:43.171Z,40.72
2019-02-15T22:10:11.672Z,40.99
2019-02-15T22:12:41.624Z,40.95
2019-02-15T22:15:14.901Z,40.86
2019-02-15T22:17:43.415Z,40.79
2019-02-15T22:20:13.735Z,40.75
2019-02-15T22:22:42.392Z,41.09
2019-02-15T22:25:11.089Z,40.86
2019-02-15T22:27:39.687Z,41.13
2019-02-15T22:30:18.334Z,41.63
2019-02-15T22:32:46.941Z,42.32
2019-02-15T22:35:15.659Z,41.86
2019-02-15T22:37:44.252Z,41.96
2019-02-15T22:40:30.017Z,42.16
2019-02-15T22:43:01.702Z,41.48
2019-02-15T22:45:30.229Z,41.41
2019-02-15T22:47:58.805Z,41.68
2019-02-15T22:50:35.696Z,42.32
2019-02-15T22:52:57.692Z,42.55
2019-02-15T22:55:26.345Z,42.35
2019-02-15T22:57:54.849Z,42.38
2019-02-15T23:00:30.899Z,42.81
2019-02-15T23:02:59.524Z,43.30
2019-02-15T23:05:28.160Z,42.30
2019-02-15T23:07:56.714Z,42.20
2019-02-15T23:10:25.318Z,42.24
2019-02-15T23:12:53.867Z,42.81
2019-02-15T23:15:22.440Z,42.55
2019-02-15T23:17:51.310Z,42.73
2019-02-15T23:20:19.929Z,42.50
2019-02-15T23:22:48.509Z,43.06
2019-02-15T23:25:17.143Z,43.50
2019-02-15T23:27:45.650Z,43.97
2019-02-15T23:30:14.223Z,44.17
2019-02-15T23:32:42.878Z,44.76
2019-02-15T23:35:11.538Z,45.05
2019-02-15T23:37:39.988Z,45.82
2019-02-15T23:40:08.577Z,45.82
2019-02-15T23:42:37.139Z,46.14
2019-02-15T23:45:06.322Z,46.24
2019-02-15T23:47:34.934Z,46.49
2019-02-15T23:50:03.614Z,46.41
2019-02-15T23:52:32.190Z,47.15
2019-02-15T23:55:00.733Z,47.41
2019-02-15T23:57:29.485Z,47.00
2019-02-15T23:59:57.994Z,47.76
